sensor_id;sensor_type;location;lat;lon;timestamp;noise_LAeq;noise_LA_min;noise_LA_max;noise_LA01;noise_LA95
68599;Laerm;18038;50.166;18.908;2024-02-16T00:00:25;36.72;32.78;50.23;;
68599;Laerm;18038;50.166;18.908;2024-02-16T00:03:33;33.63;32.83;38.67;;
68599;Laerm;18038;50.166;18.908;2024-02-16T00:06:43;34.24;32.90;38.32;;
68599;Laerm;18038;50.166;18.908;2024-02-16T00:09:53;41.08;33.29;57.77;;
68599;Laerm;18038;50.166;18.908;2024-02-16T00:13:00;39.66;33.13;56.38;;
68599;Laerm;18038;50.166;18.908;2024-02-16T00:16:08;34.26;33.11;38.01;;
68599;Laerm;18038;50.166;18.908;2024-02-16T00:19:15;33.90;32.94;35.65;;
68599;Laerm;18038;50.166;18.908;2024-02-16T00:22:26;33.69;32.77;35.40;;
68599;Laerm;18038;50.166;18.908;2024-02-16T00:25:34;33.69;32.82;37.06;;
68599;Laerm;18038;50.166;18.908;2024-02-16T00:28:43;34.05;33.06;48.46;;
68599;Laerm;18038;50.166;18.908;2024-02-16T00:31:50;34.00;33.02;37.94;;
68599;Laerm;18038;50.166;18.908;2024-02-16T00:35:01;33.91;32.97;36.85;;
68599;Laerm;18038;50.166;18.908;2024-02-16T00:38:12;37.77;33.06;52.73;;
68599;Laerm;18038;50.166;18.908;2024-02-16T00:41:22;37.36;33.04;52.40;;
68599;Laerm;18038;50.166;18.908;2024-02-16T00:44:30;34.53;33.21;42.17;;
68599;Laerm;18038;50.166;18.908;2024-02-16T00:47:38;38.37;33.25;51.99;;
68599;Laerm;18038;50.166;18.908;2024-02-16T00:50:45;36.19;34.03;44.55;;
68599;Laerm;18038;50.166;18.908;2024-02-16T00:53:56;34.80;33.40;47.32;;
68599;Laerm;18038;50.166;18.908;2024-02-16T00:57:04;40.14;33.38;57.17;;
68599;Laerm;18038;50.166;18.908;2024-02-16T01:00:14;38.51;33.24;53.62;;
68599;Laerm;18038;50.166;18.908;2024-02-16T01:03:24;33.93;32.88;37.46;;
68599;Laerm;18038;50.166;18.908;2024-02-16T01:06:32;34.09;32.84;39.67;;
68599;Laerm;18038;50.166;18.908;2024-02-16T01:09:42;39.80;32.80;55.21;;
68599;Laerm;18038;50.166;18.908;2024-02-16T01:12:50;42.38;32.99;57.05;;
68599;Laerm;18038;50.166;18.908;2024-02-16T01:16:00;34.60;33.07;39.33;;
68599;Laerm;18038;50.166;18.908;2024-02-16T01:19:08;38.38;33.07;55.54;;
68599;Laerm;18038;50.166;18.908;2024-02-16T01:22:16;41.41;33.29;54.49;;
68599;Laerm;18038;50.166;18.908;2024-02-16T01:25:26;37.81;33.04;53.15;;
68599;Laerm;18038;50.166;18.908;2024-02-16T01:28:34;34.11;33.05;41.35;;
68599;Laerm;18038;50.166;18.908;2024-02-16T01:31:42;34.34;33.31;43.47;;
68599;Laerm;18038;50.166;18.908;2024-02-16T01:34:49;34.95;33.21;47.26;;
68599;Laerm;18038;50.166;18.908;2024-02-16T01:37:57;38.67;33.62;53.56;;
68599;Laerm;18038;50.166;18.908;2024-02-16T01:41:08;42.01;33.09;57.19;;
68599;Laerm;18038;50.166;18.908;2024-02-16T01:44:17;41.08;33.25;55.38;;
68599;Laerm;18038;50.166;18.908;2024-02-16T01:47:25;34.89;31.52;48.25;;
68599;Laerm;18038;50.166;18.908;2024-02-16T01:50:33;33.47;32.47;35.58;;
68599;Laerm;18038;50.166;18.908;2024-02-16T01:53:41;34.06;32.57;43.80;;
68599;Laerm;18038;50.166;18.908;2024-02-16T01:56:54;34.25;32.50;43.98;;
68599;Laerm;18038;50.166;18.908;2024-02-16T02:00:02;34.15;32.41;43.93;;
68599;Laerm;18038;50.166;18.908;2024-02-16T02:03:13;33.64;32.09;43.03;;
68599;Laerm;18038;50.166;18.908;2024-02-16T02:06:22;33.04;32.16;35.95;;
68599;Laerm;18038;50.166;18.908;2024-02-16T02:09:30;34.56;32.42;44.74;;
68599;Laerm;18038;50.166;18.908;2024-02-16T02:12:40;34.66;32.30;49.45;;
68599;Laerm;18038;50.166;18.908;2024-02-16T02:15:50;35.15;32.57;48.38;;
68599;Laerm;18038;50.166;18.908;2024-02-16T02:18:57;33.25;32.14;42.84;;
68599;Laerm;18038;50.166;18.908;2024-02-16T02:22:14;33.33;32.22;40.45;;
68599;Laerm;18038;50.166;18.908;2024-02-16T02:25:22;36.58;32.57;49.50;;
68599;Laerm;18038;50.166;18.908;2024-02-16T02:28:32;38.01;33.33;53.11;;
68599;Laerm;18038;50.166;18.908;2024-02-16T02:31:39;38.06;34.64;49.86;;
68599;Laerm;18038;50.166;18.908;2024-02-16T02:34:47;43.64;33.44;59.88;;
68599;Laerm;18038;50.166;18.908;2024-02-16T02:37:57;33.35;32.60;35.08;;
68599;Laerm;18038;50.166;18.908;2024-02-16T02:41:06;33.37;32.17;41.14;;
68599;Laerm;18038;50.166;18.908;2024-02-16T02:44:13;33.59;32.12;45.14;;
68599;Laerm;18038;50.166;18.908;2024-02-16T02:47:21;35.06;32.09;48.74;;
68599;Laerm;18038;50.166;18.908;2024-02-16T02:50:28;33.81;31.81;45.40;;
68599;Laerm;18038;50.166;18.908;2024-02-16T02:53:39;33.27;31.91;41.65;;
68599;Laerm;18038;50.166;18.908;2024-02-16T02:56:47;33.35;31.94;40.75;;
68599;Laerm;18038;50.166;18.908;2024-02-16T03:00:04;32.63;31.99;35.07;;
68599;Laerm;18038;50.166;18.908;2024-02-16T03:03:16;35.45;32.08;46.64;;
68599;Laerm;18038;50.166;18.908;2024-02-16T03:06:25;35.14;32.14;47.83;;
68599;Laerm;18038;50.166;18.908;2024-02-16T03:09:35;33.39;31.94;43.49;;
68599;Laerm;18038;50.166;18.908;2024-02-16T03:12:43;33.20;31.86;45.77;;
68599;Laerm;18038;50.166;18.908;2024-02-16T03:15:53;32.83;31.97;36.55;;
68599;Laerm;18038;50.166;18.908;2024-02-16T03:19:01;33.93;32.06;43.11;;
68599;Laerm;18038;50.166;18.908;2024-02-16T03:22:13;32.84;31.99;38.60;;
68599;Laerm;18038;50.166;18.908;2024-02-16T03:25:24;35.80;32.12;48.54;;
68599;Laerm;18038;50.166;18.908;2024-02-16T03:28:31;35.06;31.84;46.29;;
68599;Laerm;18038;50.166;18.908;2024-02-16T03:31:39;34.73;32.10;43.27;;
68599;Laerm;18038;50.166;18.908;2024-02-16T03:34:47;36.57;32.05;46.42;;
68599;Laerm;18038;50.166;18.908;2024-02-16T03:37:55;36.51;32.02;48.50;;
68599;Laerm;18038;50.166;18.908;2024-02-16T03:41:05;34.55;31.82;46.31;;
68599;Laerm;18038;50.166;18.908;2024-02-16T03:44:14;37.26;32.22;48.07;;
68599;Laerm;18038;50.166;18.908;2024-02-16T03:47:21;36.90;32.36;48.91;;
68599;Laerm;18038;50.166;18.908;2024-02-16T03:50:29;33.78;32.02;43.58;;
68599;Laerm;18038;50.166;18.908;2024-02-16T03:53:36;35.89;32.32;49.76;;
68599;Laerm;18038;50.166;18.908;2024-02-16T03:56:47;36.77;32.38;51.63;;
68599;Laerm;18038;50.166;18.908;2024-02-16T03:59:54;34.59;31.95;43.46;;
68599;Laerm;18038;50.166;18.908;2024-02-16T04:03:03;36.44;32.43;45.89;;
68599;Laerm;18038;50.166;18.908;2024-02-16T04:06:10;38.92;33.00;49.33;;
68599;Laerm;18038;50.166;18.908;2024-02-16T04:09:18;39.41;32.58;51.36;;
68599;Laerm;18038;50.166;18.908;2024-02-16T04:12:28;39.10;32.48;50.57;;
68599;Laerm;18038;50.166;18.908;2024-02-16T04:15:36;38.22;33.08;47.08;;
68599;Laerm;18038;50.166;18.908;2024-02-16T04:18:44;38.30;33.01;48.33;;
68599;Laerm;18038;50.166;18.908;2024-02-16T04:21:52;39.33;33.44;47.20;;
68599;Laerm;18038;50.166;18.908;2024-02-16T04:25:04;40.03;33.34;51.51;;
68599;Laerm;18038;50.166;18.908;2024-02-16T04:28:16;37.07;33.51;45.77;;
68599;Laerm;18038;50.166;18.908;2024-02-16T04:31:23;37.39;33.04;48.07;;
68599;Laerm;18038;50.166;18.908;2024-02-16T04:34:32;40.89;33.44;49.38;;
68599;Laerm;18038;50.166;18.908;2024-02-16T04:37:39;39.96;33.49;48.58;;
68599;Laerm;18038;50.166;18.908;2024-02-16T04:40:47;39.73;33.79;47.92;;
68599;Laerm;18038;50.166;18.908;2024-02-16T04:43:57;38.02;33.42;48.07;;
68599;Laerm;18038;50.166;18.908;2024-02-16T04:47:05;39.33;33.71;47.69;;
68599;Laerm;18038;50.166;18.908;2024-02-16T04:50:13;39.11;33.90;47.31;;
68599;Laerm;18038;50.166;18.908;2024-02-16T04:53:21;39.67;33.37;50.93;;
68599;Laerm;18038;50.166;18.908;2024-02-16T04:56:28;40.28;34.56;49.92;;
68599;Laerm;18038;50.166;18.908;2024-02-16T04:59:39;38.71;33.40;47.41;;
68599;Laerm;18038;50.166;18.908;2024-02-16T05:02:46;39.79;33.22;48.85;;
68599;Laerm;18038;50.166;18.908;2024-02-16T05:05:55;37.63;33.34;45.04;;
68599;Laerm;18038;50.166;18.908;2024-02-16T05:09:02;38.70;33.76;46.32;;
68599;Laerm;18038;50.166;18.908;2024-02-16T05:12:10;39.19;34.56;48.08;;
68599;Laerm;18038;50.166;18.908;2024-02-16T05:15:20;39.97;34.48;46.17;;
68599;Laerm;18038;50.166;18.908;2024-02-16T05:18:28;40.29;34.92;47.02;;
68599;Laerm;18038;50.166;18.908;2024-02-16T05:21:36;39.15;35.06;46.72;;
68599;Laerm;18038;50.166;18.908;2024-02-16T05:24:44;39.72;34.29;48.63;;
68599;Laerm;18038;50.166;18.908;2024-02-16T05:27:51;43.15;34.56;55.89;;
68599;Laerm;18038;50.166;18.908;2024-02-16T05:31:14;41.23;34.75;51.67;;
68599;Laerm;18038;50.166;18.908;2024-02-16T05:34:23;39.51;34.45;49.20;;
68599;Laerm;18038;50.166;18.908;2024-02-16T05:37:31;42.69;35.47;50.78;;
68599;Laerm;18038;50.166;18.908;2024-02-16T05:40:41;40.83;34.56;51.46;;
68599;Laerm;18038;50.166;18.908;2024-02-16T05:43:58;40.70;35.20;49.44;;
68599;Laerm;18038;50.166;18.908;2024-02-16T05:47:08;41.45;35.74;49.55;;
68599;Laerm;18038;50.166;18.908;2024-02-16T05:50:17;42.11;35.91;54.12;;
68599;Laerm;18038;50.166;18.908;2024-02-16T05:53:25;42.57;36.04;50.44;;
68599;Laerm;18038;50.166;18.908;2024-02-16T05:56:34;43.24;37.65;48.29;;
68599;Laerm;18038;50.166;18.908;2024-02-16T05:59:43;42.26;35.48;48.45;;
68599;Laerm;18038;50.166;18.908;2024-02-16T06:02:56;41.62;34.56;48.52;;
68599;Laerm;18038;50.166;18.908;2024-02-16T06:06:03;41.29;35.61;48.28;;
68599;Laerm;18038;50.166;18.908;2024-02-16T06:09:13;41.02;34.92;49.15;;
68599;Laerm;18038;50.166;18.908;2024-02-16T06:12:20;41.82;35.06;48.19;;
68599;Laerm;18038;50.166;18.908;2024-02-16T06:15:28;41.49;35.45;47.98;;
68599;Laerm;18038;50.166;18.908;2024-02-16T06:18:39;42.09;35.77;49.38;;
68599;Laerm;18038;50.166;18.908;2024-02-16T06:21:47;40.86;34.45;47.05;;
68599;Laerm;18038;50.166;18.908;2024-02-16T06:24:54;41.62;35.00;48.12;;
68599;Laerm;18038;50.166;18.908;2024-02-16T06:28:03;41.85;36.69;48.04;;
68599;Laerm;18038;50.166;18.908;2024-02-16T06:31:10;42.12;35.79;48.87;;
68599;Laerm;18038;50.166;18.908;2024-02-16T06:34:23;42.51;36.22;47.84;;
68599;Laerm;18038;50.166;18.908;2024-02-16T06:37:31;42.54;36.98;49.82;;
68599;Laerm;18038;50.166;18.908;2024-02-16T06:40:39;43.09;37.07;49.27;;
68599;Laerm;18038;50.166;18.908;2024-02-16T06:43:46;44.41;37.81;52.28;;
68599;Laerm;18038;50.166;18.908;2024-02-16T06:46:54;42.37;36.09;48.98;;
68599;Laerm;18038;50.166;18.908;2024-02-16T06:50:06;42.13;36.56;47.53;;
68599;Laerm;18038;50.166;18.908;2024-02-16T06:53:14;42.09;37.34;47.22;;
68599;Laerm;18038;50.166;18.908;2024-02-16T06:56:22;42.15;37.36;49.12;;
68599;Laerm;18038;50.166;18.908;2024-02-16T06:59:30;41.81;36.93;47.58;;
68599;Laerm;18038;50.166;18.908;2024-02-16T07:02:37;42.05;35.70;50.24;;
68599;Laerm;18038;50.166;18.908;2024-02-16T07:05:49;42.70;34.78;53.30;;
68599;Laerm;18038;50.166;18.908;2024-02-16T07:08:56;44.28;34.91;63.52;;
68599;Laerm;18038;50.166;18.908;2024-02-16T07:12:06;41.01;34.89;47.97;;
68599;Laerm;18038;50.166;18.908;2024-02-16T07:15:16;41.83;35.80;47.01;;
68599;Laerm;18038;50.166;18.908;2024-02-16T07:18:24;41.39;35.11;50.44;;
68599;Laerm;18038;50.166;18.908;2024-02-16T07:21:35;41.09;35.65;46.82;;
68599;Laerm;18038;50.166;18.908;2024-02-16T07:24:43;40.98;35.85;47.04;;
68599;Laerm;18038;50.166;18.908;2024-02-16T07:27:50;39.94;35.00;59.12;;
68599;Laerm;18038;50.166;18.908;2024-02-16T07:30:58;39.21;34.64;45.75;;
68599;Laerm;18038;50.166;18.908;2024-02-16T07:34:06;38.71;34.19;46.03;;
68599;Laerm;18038;50.166;18.908;2024-02-16T07:37:19;39.12;34.00;47.14;;
68599;Laerm;18038;50.166;18.908;2024-02-16T07:40:26;39.98;34.46;50.05;;
68599;Laerm;18038;50.166;18.908;2024-02-16T07:43:35;39.76;33.69;49.29;;
68599;Laerm;18038;50.166;18.908;2024-02-16T07:46:43;40.34;33.68;49.04;;
68599;Laerm;18038;50.166;18.908;2024-02-16T07:49:51;39.52;34.44;47.34;;
68599;Laerm;18038;50.166;18.908;2024-02-16T07:53:01;39.00;33.24;46.39;;
68599;Laerm;18038;50.166;18.908;2024-02-16T07:56:09;39.11;33.58;46.19;;
68599;Laerm;18038;50.166;18.908;2024-02-16T07:59:16;39.19;33.77;45.81;;
68599;Laerm;18038;50.166;18.908;2024-02-16T08:02:25;39.33;33.05;45.22;;
68599;Laerm;18038;50.166;18.908;2024-02-16T08:05:33;37.82;33.03;42.85;;
68599;Laerm;18038;50.166;18.908;2024-02-16T08:08:43;38.41;32.80;46.11;;
68599;Laerm;18038;50.166;18.908;2024-02-16T08:11:51;38.48;32.58;46.14;;
68599;Laerm;18038;50.166;18.908;2024-02-16T08:14:59;38.57;33.26;46.72;;
68599;Laerm;18038;50.166;18.908;2024-02-16T08:18:08;40.05;32.66;48.70;;
68599;Laerm;18038;50.166;18.908;2024-02-16T08:21:17;37.88;32.77;46.14;;
68599;Laerm;18038;50.166;18.908;2024-02-16T08:24:28;39.30;33.04;54.80;;
68599;Laerm;18038;50.166;18.908;2024-02-16T08:27:36;38.59;32.78;46.34;;
68599;Laerm;18038;50.166;18.908;2024-02-16T08:30:44;38.61;32.88;45.43;;
68599;Laerm;18038;50.166;18.908;2024-02-16T08:33:52;38.88;32.67;47.39;;
68599;Laerm;18038;50.166;18.908;2024-02-16T08:37:00;37.38;32.46;44.33;;
68599;Laerm;18038;50.166;18.908;2024-02-16T08:40:13;37.60;32.61;46.68;;
68599;Laerm;18038;50.166;18.908;2024-02-16T08:43:21;38.04;32.44;53.01;;
68599;Laerm;18038;50.166;18.908;2024-02-16T08:46:29;38.11;32.75;44.95;;
68599;Laerm;18038;50.166;18.908;2024-02-16T08:49:36;37.91;32.30;44.94;;
68599;Laerm;18038;50.166;18.908;2024-02-16T08:52:45;39.99;33.49;48.17;;
68599;Laerm;18038;50.166;18.908;2024-02-16T08:55:54;37.09;32.57;44.16;;
68599;Laerm;18038;50.166;18.908;2024-02-16T08:59:03;37.80;32.87;46.67;;
68599;Laerm;18038;50.166;18.908;2024-02-16T09:02:10;38.81;32.54;46.24;;
68599;Laerm;18038;50.166;18.908;2024-02-16T09:05:18;38.79;33.53;44.88;;
68599;Laerm;18038;50.166;18.908;2024-02-16T09:08:25;38.81;33.37;44.71;;
68599;Laerm;18038;50.166;18.908;2024-02-16T09:11:40;37.81;32.65;45.34;;
68599;Laerm;18038;50.166;18.908;2024-02-16T09:14:47;38.59;32.69;44.32;;
68599;Laerm;18038;50.166;18.908;2024-02-16T09:17:56;37.06;32.44;45.94;;
68599;Laerm;18038;50.166;18.908;2024-02-16T09:21:04;37.76;32.83;45.43;;
68599;Laerm;18038;50.166;18.908;2024-02-16T09:24:12;38.95;32.61;49.04;;
68599;Laerm;18038;50.166;18.908;2024-02-16T09:27:25;38.27;32.26;47.60;;
68599;Laerm;18038;50.166;18.908;2024-02-16T09:30:33;38.25;32.33;48.01;;
68599;Laerm;18038;50.166;18.908;2024-02-16T09:33:40;37.79;32.18;45.69;;
68599;Laerm;18038;50.166;18.908;2024-02-16T09:36:49;38.50;32.43;47.75;;
68599;Laerm;18038;50.166;18.908;2024-02-16T09:39:56;40.01;32.49;53.65;;
68599;Laerm;18038;50.166;18.908;2024-02-16T09:43:07;40.96;32.31;53.95;;
68599;Laerm;18038;50.166;18.908;2024-02-16T09:46:16;40.57;32.55;51.81;;
68599;Laerm;18038;50.166;18.908;2024-02-16T09:49:25;38.54;32.12;49.68;;
68599;Laerm;18038;50.166;18.908;2024-02-16T09:52:50;40.05;32.31;54.86;;
68599;Laerm;18038;50.166;18.908;2024-02-16T09:55:58;38.77;32.41;47.75;;
68599;Laerm;18038;50.166;18.908;2024-02-16T09:59:08;38.15;32.41;45.58;;
68599;Laerm;18038;50.166;18.908;2024-02-16T10:02:17;40.85;32.17;52.82;;
68599;Laerm;18038;50.166;18.908;2024-02-16T10:05:25;40.59;32.70;51.46;;
68599;Laerm;18038;50.166;18.908;2024-02-16T10:08:47;39.16;32.66;49.57;;
68599;Laerm;18038;50.166;18.908;2024-02-16T10:11:55;40.38;32.29;57.60;;
68599;Laerm;18038;50.166;18.908;2024-02-16T10:15:08;38.34;32.03;51.56;;
68599;Laerm;18038;50.166;18.908;2024-02-16T10:18:16;39.48;32.67;59.87;;
68599;Laerm;18038;50.166;18.908;2024-02-16T10:21:25;40.29;32.31;54.42;;
68599;Laerm;18038;50.166;18.908;2024-02-16T10:24:33;41.01;32.35;54.50;;
68599;Laerm;18038;50.166;18.908;2024-02-16T10:27:46;47.36;32.75;61.25;;
68599;Laerm;18038;50.166;18.908;2024-02-16T10:31:01;41.27;32.86;54.54;;
68599;Laerm;18038;50.166;18.908;2024-02-16T10:34:11;39.11;32.15;51.57;;
68599;Laerm;18038;50.166;18.908;2024-02-16T10:37:22;38.35;32.44;45.09;;
68599;Laerm;18038;50.166;18.908;2024-02-16T10:40:33;55.80;32.54;86.73;;
68599;Laerm;18038;50.166;18.908;2024-02-16T10:43:48;52.47;41.53;67.87;;
68599;Laerm;18038;50.166;18.908;2024-02-16T10:46:59;49.91;39.86;62.78;;
68599;Laerm;18038;50.166;18.908;2024-02-16T10:50:08;47.42;37.24;59.49;;
68599;Laerm;18038;50.166;18.908;2024-02-16T10:53:24;50.98;39.06;61.40;;
68599;Laerm;18038;50.166;18.908;2024-02-16T10:56:36;52.61;42.92;66.77;;
68599;Laerm;18038;50.166;18.908;2024-02-16T10:59:45;53.73;42.03;66.02;;
68599;Laerm;18038;50.166;18.908;2024-02-16T11:02:59;53.29;40.94;70.57;;
68599;Laerm;18038;50.166;18.908;2024-02-16T11:06:15;51.47;42.20;59.34;;
68599;Laerm;18038;50.166;18.908;2024-02-16T11:09:29;51.18;39.01;63.14;;
68599;Laerm;18038;50.166;18.908;2024-02-16T11:12:44;49.26;38.41;60.37;;
68599;Laerm;18038;50.166;18.908;2024-02-16T11:15:58;49.46;36.69;58.99;;
68599;Laerm;18038;50.166;18.908;2024-02-16T11:19:10;49.43;37.34;59.69;;
68599;Laerm;18038;50.166;18.908;2024-02-16T11:22:21;48.94;38.24;60.02;;
68599;Laerm;18038;50.166;18.908;2024-02-16T11:25:33;50.03;39.21;61.83;;
68599;Laerm;18038;50.166;18.908;2024-02-16T11:28:42;51.75;39.84;60.28;;
68599;Laerm;18038;50.166;18.908;2024-02-16T11:31:50;48.43;36.62;58.37;;
68599;Laerm;18038;50.166;18.908;2024-02-16T11:35:07;47.23;36.47;61.93;;
68599;Laerm;18038;50.166;18.908;2024-02-16T11:38:16;49.37;37.55;57.72;;
68599;Laerm;18038;50.166;18.908;2024-02-16T11:41:23;48.11;38.25;58.62;;
68599;Laerm;18038;50.166;18.908;2024-02-16T11:44:34;49.66;38.18;58.89;;
68599;Laerm;18038;50.166;18.908;2024-02-16T11:47:44;48.83;39.07;57.15;;
68599;Laerm;18038;50.166;18.908;2024-02-16T11:51:03;48.27;36.70;60.00;;
68599;Laerm;18038;50.166;18.908;2024-02-16T11:54:11;49.10;37.62;59.67;;
68599;Laerm;18038;50.166;18.908;2024-02-16T11:57:22;49.36;38.41;58.56;;
68599;Laerm;18038;50.166;18.908;2024-02-16T12:00:29;51.18;40.27;64.94;;
68599;Laerm;18038;50.166;18.908;2024-02-16T12:03:41;49.27;38.71;62.16;;
68599;Laerm;18038;50.166;18.908;2024-02-16T12:06:57;51.41;38.12;60.33;;
68599;Laerm;18038;50.166;18.908;2024-02-16T12:10:10;50.61;39.21;63.35;;
68599;Laerm;18038;50.166;18.908;2024-02-16T12:13:19;50.03;37.96;61.49;;
68599;Laerm;18038;50.166;18.908;2024-02-16T12:16:28;50.61;38.18;64.00;;
68599;Laerm;18038;50.166;18.908;2024-02-16T12:19:36;49.52;37.70;60.01;;
68599;Laerm;18038;50.166;18.908;2024-02-16T12:22:47;53.73;39.53;72.44;;
68599;Laerm;18038;50.166;18.908;2024-02-16T12:25:54;51.00;40.21;65.62;;
68599;Laerm;18038;50.166;18.908;2024-02-16T12:29:02;51.52;39.70;63.61;;
68599;Laerm;18038;50.166;18.908;2024-02-16T12:32:10;51.41;37.48;68.34;;
68599;Laerm;18038;50.166;18.908;2024-02-16T12:35:24;50.68;38.90;61.71;;
68599;Laerm;18038;50.166;18.908;2024-02-16T12:38:33;50.36;39.15;59.91;;
68599;Laerm;18038;50.166;18.908;2024-02-16T12:41:42;51.53;38.52;68.19;;
68599;Laerm;18038;50.166;18.908;2024-02-16T12:44:49;50.30;39.02;58.74;;
68599;Laerm;18038;50.166;18.908;2024-02-16T12:47:57;53.36;39.88;69.34;;
68599;Laerm;18038;50.166;18.908;2024-02-16T12:51:05;50.16;39.21;58.73;;
68599;Laerm;18038;50.166;18.908;2024-02-16T12:54:15;52.12;38.88;66.01;;
68599;Laerm;18038;50.166;18.908;2024-02-16T12:57:23;52.63;37.70;69.14;;
68599;Laerm;18038;50.166;18.908;2024-02-16T13:00:31;50.78;40.46;63.41;;
68599;Laerm;18038;50.166;18.908;2024-02-16T13:03:39;50.62;39.99;59.04;;
68599;Laerm;18038;50.166;18.908;2024-02-16T13:06:47;51.82;39.45;67.02;;
68599;Laerm;18038;50.166;18.908;2024-02-16T13:10:00;51.69;38.17;64.87;;
68599;Laerm;18038;50.166;18.908;2024-02-16T13:13:08;54.16;40.23;70.21;;
68599;Laerm;18038;50.166;18.908;2024-02-16T13:16:15;53.72;40.15;71.86;;
68599;Laerm;18038;50.166;18.908;2024-02-16T13:19:23;52.96;41.74;66.55;;
68599;Laerm;18038;50.166;18.908;2024-02-16T13:22:31;50.91;39.26;60.57;;
68599;Laerm;18038;50.166;18.908;2024-02-16T13:25:41;50.57;40.31;58.95;;
68599;Laerm;18038;50.166;18.908;2024-02-16T13:28:49;51.95;40.62;60.86;;
68599;Laerm;18038;50.166;18.908;2024-02-16T13:31:59;49.83;38.77;60.99;;
68599;Laerm;18038;50.166;18.908;2024-02-16T13:35:08;50.16;40.28;61.83;;
68599;Laerm;18038;50.166;18.908;2024-02-16T13:38:18;50.48;40.31;59.39;;
68599;Laerm;18038;50.166;18.908;2024-02-16T13:41:28;50.71;39.63;63.15;;
68599;Laerm;18038;50.166;18.908;2024-02-16T13:44:36;51.06;41.51;61.71;;
68599;Laerm;18038;50.166;18.908;2024-02-16T13:47:44;51.08;40.61;60.02;;
68599;Laerm;18038;50.166;18.908;2024-02-16T13:50:54;51.99;40.21;63.37;;
68599;Laerm;18038;50.166;18.908;2024-02-16T13:54:02;52.79;40.17;65.83;;
68599;Laerm;18038;50.166;18.908;2024-02-16T13:57:12;57.24;39.69;78.41;;
68599;Laerm;18038;50.166;18.908;2024-02-16T14:00:20;52.69;39.16;69.34;;
68599;Laerm;18038;50.166;18.908;2024-02-16T14:03:28;51.90;40.05;62.95;;
68599;Laerm;18038;50.166;18.908;2024-02-16T14:06:36;50.55;40.32;59.31;;
68599;Laerm;18038;50.166;18.908;2024-02-16T14:09:44;51.86;40.11;60.97;;
68599;Laerm;18038;50.166;18.908;2024-02-16T14:12:54;51.29;41.66;60.48;;
68599;Laerm;18038;50.166;18.908;2024-02-16T14:16:02;51.67;39.30;63.53;;
68599;Laerm;18038;50.166;18.908;2024-02-16T14:19:09;53.52;44.33;64.80;;
68599;Laerm;18038;50.166;18.908;2024-02-16T14:22:17;51.65;40.32;65.18;;
68599;Laerm;18038;50.166;18.908;2024-02-16T14:25:25;53.60;41.84;71.17;;
68599;Laerm;18038;50.166;18.908;2024-02-16T14:28:36;52.84;42.58;65.35;;
68599;Laerm;18038;50.166;18.908;2024-02-16T14:31:43;50.70;38.93;61.15;;
68599;Laerm;18038;50.166;18.908;2024-02-16T14:34:51;52.77;38.34;70.43;;
68599;Laerm;18038;50.166;18.908;2024-02-16T14:37:58;52.94;40.75;68.20;;
68599;Laerm;18038;50.166;18.908;2024-02-16T14:41:06;51.86;40.25;64.45;;
68599;Laerm;18038;50.166;18.908;2024-02-16T14:44:16;53.40;41.17;67.87;;
68599;Laerm;18038;50.166;18.908;2024-02-16T14:47:25;51.42;40.61;62.46;;
68599;Laerm;18038;50.166;18.908;2024-02-16T14:50:32;51.13;42.91;57.90;;
68599;Laerm;18038;50.166;18.908;2024-02-16T14:53:41;49.76;40.79;59.26;;
68599;Laerm;18038;50.166;18.908;2024-02-16T14:56:48;61.98;41.86;85.34;;
68599;Laerm;18038;50.166;18.908;2024-02-16T15:00:02;50.27;39.34;59.24;;
68599;Laerm;18038;50.166;18.908;2024-02-16T15:03:10;50.38;39.36;60.19;;
68599;Laerm;18038;50.166;18.908;2024-02-16T15:06:18;49.55;39.70;56.77;;
68599;Laerm;18038;50.166;18.908;2024-02-16T15:09:25;51.05;41.52;61.57;;
68599;Laerm;18038;50.166;18.908;2024-02-16T15:12:34;50.02;39.55;58.47;;
68599;Laerm;18038;50.166;18.908;2024-02-16T15:15:46;50.95;39.98;62.73;;
68599;Laerm;18038;50.166;18.908;2024-02-16T15:18:55;50.29;37.79;61.31;;
68599;Laerm;18038;50.166;18.908;2024-02-16T15:22:02;49.26;38.55;59.29;;
68599;Laerm;18038;50.166;18.908;2024-02-16T15:25:11;49.76;39.82;57.23;;
68599;Laerm;18038;50.166;18.908;2024-02-16T15:28:18;53.69;39.61;72.92;;
68599;Laerm;18038;50.166;18.908;2024-02-16T15:31:29;50.44;41.24;57.84;;
68599;Laerm;18038;50.166;18.908;2024-02-16T15:34:37;52.33;40.56;63.70;;
68599;Laerm;18038;50.166;18.908;2024-02-16T15:37:48;51.42;41.31;63.97;;
68599;Laerm;18038;50.166;18.908;2024-02-16T15:40:56;50.90;39.48;60.22;;
68599;Laerm;18038;50.166;18.908;2024-02-16T15:44:04;50.68;40.79;61.18;;
68599;Laerm;18038;50.166;18.908;2024-02-16T15:47:14;52.77;40.25;69.85;;
68599;Laerm;18038;50.166;18.908;2024-02-16T15:50:23;50.10;40.38;58.08;;
68599;Laerm;18038;50.166;18.908;2024-02-16T15:53:31;51.32;40.64;60.80;;
68599;Laerm;18038;50.166;18.908;2024-02-16T15:56:39;50.46;40.06;59.61;;
68599;Laerm;18038;50.166;18.908;2024-02-16T15:59:46;49.75;39.68;61.23;;
68599;Laerm;18038;50.166;18.908;2024-02-16T16:02:57;49.97;39.34;57.11;;
68599;Laerm;18038;50.166;18.908;2024-02-16T16:06:05;48.91;39.24;60.94;;
68599;Laerm;18038;50.166;18.908;2024-02-16T16:09:14;50.54;39.11;60.44;;
68599;Laerm;18038;50.166;18.908;2024-02-16T16:12:22;48.85;38.98;59.09;;
68599;Laerm;18038;50.166;18.908;2024-02-16T16:15:30;48.46;38.94;57.48;;
68599;Laerm;18038;50.166;18.908;2024-02-16T16:18:40;50.18;39.66;59.45;;
68599;Laerm;18038;50.166;18.908;2024-02-16T16:21:49;53.43;38.97;67.94;;
68599;Laerm;18038;50.166;18.908;2024-02-16T16:24:57;49.50;39.50;64.42;;
68599;Laerm;18038;50.166;18.908;2024-02-16T16:28:06;50.02;39.19;62.76;;
68599;Laerm;18038;50.166;18.908;2024-02-16T16:31:13;50.56;40.48;64.02;;
68599;Laerm;18038;50.166;18.908;2024-02-16T16:34:24;47.98;38.64;56.37;;
68599;Laerm;18038;50.166;18.908;2024-02-16T16:37:33;49.15;39.78;56.38;;
68599;Laerm;18038;50.166;18.908;2024-02-16T16:40:41;48.59;39.17;56.14;;
68599;Laerm;18038;50.166;18.908;2024-02-16T16:43:48;51.33;42.78;61.12;;
68599;Laerm;18038;50.166;18.908;2024-02-16T16:46:56;51.00;41.89;59.00;;
68599;Laerm;18038;50.166;18.908;2024-02-16T16:50:07;47.74;38.46;60.60;;
68599;Laerm;18038;50.166;18.908;2024-02-16T16:53:15;50.51;38.65;72.73;;
68599;Laerm;18038;50.166;18.908;2024-02-16T16:56:24;49.19;39.68;61.60;;
68599;Laerm;18038;50.166;18.908;2024-02-16T16:59:33;48.80;37.76;57.03;;
68599;Laerm;18038;50.166;18.908;2024-02-16T17:02:40;48.51;39.80;58.18;;
68599;Laerm;18038;50.166;18.908;2024-02-16T17:05:51;49.41;38.93;59.53;;
68599;Laerm;18038;50.166;18.908;2024-02-16T17:08:58;48.25;37.49;57.00;;
68599;Laerm;18038;50.166;18.908;2024-02-16T17:12:07;49.03;39.62;56.13;;
68599;Laerm;18038;50.166;18.908;2024-02-16T17:15:16;48.42;37.90;60.96;;
68599;Laerm;18038;50.166;18.908;2024-02-16T17:18:27;49.59;40.82;59.04;;
68599;Laerm;18038;50.166;18.908;2024-02-16T17:21:41;49.61;39.24;57.35;;